sensor_id;sensor_type;location;lat;lon;timestamp;pressure;altitude;pressure_sealevel;temperature;humidity
9839;BME280;4958;48.150;11.506;2023-02-28T00:23:40;96032.38;;;0.06;62.94
9839;BME280;4958;48.150;11.506;2023-02-28T00:37:21;96032.66;;;0.02;63.26
9839;BME280;4958;48.150;11.506;2023-02-28T01:01:38;96039.84;;;-0.30;63.44
9839;BME280;4958;48.150;11.506;2023-02-28T02:39:58;95987.13;;;0.02;63.45
9839;BME280;4958;48.150;11.506;2023-02-28T02:47:01;95975.59;;;-0.28;64.80
9839;BME280;4958;48.150;11.506;2023-02-28T03:00:18;95975.19;;;-0.22;64.72
9839;BME280;4958;48.150;11.506;2023-02-28T03:03:40;95969.63;;;-0.40;65.50
9839;BME280;4958;48.150;11.506;2023-02-28T04:23:40;96015.38;;;-0.05;67.19
9839;BME280;4958;48.150;11.506;2023-02-28T04:30:17;96028.13;;;-0.06;66.90
9839;BME280;4958;48.150;11.506;2023-02-28T04:37:30;96020.72;;;0.04;66.92
9839;BME280;4958;48.150;11.506;2023-02-28T04:40:15;96014.66;;;0.06;67.09
9839;BME280;4958;48.150;11.506;2023-02-28T04:52:12;96022.16;;;0.08;67.35
9839;BME280;4958;48.150;11.506;2023-02-28T05:04:50;96044.03;;;-0.04;67.98
9839;BME280;4958;48.150;11.506;2023-02-28T05:07:48;96032.38;;;-0.07;68.47
9839;BME280;4958;48.150;11.506;2023-02-28T05:10:55;96031.47;;;-0.06;68.46
9839;BME280;4958;48.150;11.506;2023-02-28T05:16:26;96037.13;;;-0.15;68.96
9839;BME280;4958;48.150;11.506;2023-02-28T05:21:21;96034.09;;;-0.20;69.39
9839;BME280;4958;48.150;11.506;2023-02-28T05:39:39;96046.25;;;0.13;68.68
9839;BME280;4958;48.150;11.506;2023-02-28T05:51:30;96040.69;;;-0.05;69.08
9839;BME280;4958;48.150;11.506;2023-02-28T05:54:26;96046.75;;;-0.07;69.31
9839;BME280;4958;48.150;11.506;2023-02-28T06:04:20;96050.66;;;-0.41;70.79
9839;BME280;4958;48.150;11.506;2023-02-28T06:07:13;96062.97;;;-0.49;71.09
9839;BME280;4958;48.150;11.506;2023-02-28T06:10:32;96067.13;;;-0.48;71.36
9839;BME280;4958;48.150;11.506;2023-02-28T06:13:11;96060.06;;;-0.43;70.88
9839;BME280;4958;48.150;11.506;2023-02-28T06:16:55;96064.72;;;-0.37;74.05
9839;BME280;4958;48.150;11.506;2023-02-28T06:19:28;96069.53;;;-0.20;73.04
9839;BME280;4958;48.150;11.506;2023-02-28T06:21:58;96071.94;;;-0.18;70.32
9839;BME280;4958;48.150;11.506;2023-02-28T06:24:54;96070.19;;;-0.30;70.09
9839;BME280;4958;48.150;11.506;2023-02-28T06:27:42;96070.94;;;-0.55;71.06
9839;BME280;4958;48.150;11.506;2023-02-28T06:30:34;96068.56;;;-0.44;70.66
9839;BME280;4958;48.150;11.506;2023-02-28T06:33:17;96073.38;;;-0.54;71.43
9839;BME280;4958;48.150;11.506;2023-02-28T06:36:17;96074.09;;;-0.52;71.26
9839;BME280;4958;48.150;11.506;2023-02-28T06:39:44;96067.47;;;-0.40;71.15
9839;BME280;4958;48.150;11.506;2023-02-28T06:52:42;96092.88;;;-0.16;69.70
9839;BME280;4958;48.150;11.506;2023-02-28T06:55:56;96094.41;;;-0.26;69.35
9839;BME280;4958;48.150;11.506;2023-02-28T07:02:15;96106.50;;;-0.44;70.29
9839;BME280;4958;48.150;11.506;2023-02-28T07:05:15;96105.69;;;-0.45;70.62
9839;BME280;4958;48.150;11.506;2023-02-28T07:07:55;96111.13;;;-0.51;70.62
9839;BME280;4958;48.150;11.506;2023-02-28T07:10:32;96106.69;;;-0.47;70.78
9839;BME280;4958;48.150;11.506;2023-02-28T07:13:28;96107.16;;;-0.55;71.28
9839;BME280;4958;48.150;11.506;2023-02-28T07:16:07;96120.25;;;-0.36;70.44
9839;BME280;4958;48.150;11.506;2023-02-28T07:18:48;96112.19;;;-0.28;70.30
9839;BME280;4958;48.150;11.506;2023-02-28T07:21:31;96120.59;;;-0.27;70.38
9839;BME280;4958;48.150;11.506;2023-02-28T07:24:06;96120.69;;;-0.29;70.08
9839;BME280;4958;48.150;11.506;2023-02-28T07:26:43;96117.16;;;-0.39;70.23
9839;BME280;4958;48.150;11.506;2023-02-28T07:29:47;96113.66;;;-0.51;70.61
9839;BME280;4958;48.150;11.506;2023-02-28T07:32:18;96114.56;;;-0.52;70.75
9839;BME280;4958;48.150;11.506;2023-02-28T07:35:00;96116.38;;;-0.54;70.82
9839;BME280;4958;48.150;11.506;2023-02-28T07:37:52;96114.31;;;-0.61;71.50
9839;BME280;4958;48.150;11.506;2023-02-28T07:41:06;96109.66;;;-0.41;70.74
9839;BME280;4958;48.150;11.506;2023-02-28T07:43:49;96112.09;;;-0.39;70.34
9839;BME280;4958;48.150;11.506;2023-02-28T07:46:32;96115.91;;;-0.33;70.28
9839;BME280;4958;48.150;11.506;2023-02-28T07:49:22;96110.31;;;-0.12;69.72
9839;BME280;4958;48.150;11.506;2023-02-28T07:51:59;96114.03;;;-0.17;70.04
9839;BME280;4958;48.150;11.506;2023-02-28T07:54:46;96117.38;;;-0.17;69.34
9839;BME280;4958;48.150;11.506;2023-02-28T07:57:57;96112.72;;;-0.23;69.22
9839;BME280;4958;48.150;11.506;2023-02-28T08:00:20;96111.84;;;-0.09;68.94
9839;BME280;4958;48.150;11.506;2023-02-28T08:03:14;96105.47;;;-0.02;68.87
9839;BME280;4958;48.150;11.506;2023-02-28T08:05:48;96113.69;;;0.14;68.28
9839;BME280;4958;48.150;11.506;2023-02-28T08:08:21;96113.09;;;0.11;68.09
9839;BME280;4958;48.150;11.506;2023-02-28T08:11:06;96117.44;;;0.21;67.85
9839;BME280;4958;48.150;11.506;2023-02-28T08:13:59;96123.53;;;0.31;67.58
9839;BME280;4958;48.150;11.506;2023-02-28T08:16:36;96128.88;;;0.40;67.10
9839;BME280;4958;48.150;11.506;2023-02-28T08:19:14;96134.56;;;0.43;67.20
9839;BME280;4958;48.150;11.506;2023-02-28T08:21:46;96131.75;;;0.48;66.46
9839;BME280;4958;48.150;11.506;2023-02-28T08:24:21;96132.44;;;0.24;66.65
9839;BME280;4958;48.150;11.506;2023-02-28T08:29:50;96149.84;;;0.16;67.40
9839;BME280;4958;48.150;11.506;2023-02-28T08:32:28;96143.72;;;-0.07;68.36
9839;BME280;4958;48.150;11.506;2023-02-28T08:34:55;96144.31;;;-0.16;68.72
9839;BME280;4958;48.150;11.506;2023-02-28T08:37:34;96149.59;;;-0.06;68.89
9839;BME280;4958;48.150;11.506;2023-02-28T08:40:21;96144.66;;;0.05;68.54
9839;BME280;4958;48.150;11.506;2023-02-28T08:43:08;96140.34;;;0.32;67.89
9839;BME280;4958;48.150;11.506;2023-02-28T08:48:58;96156.44;;;0.19;68.04
9839;BME280;4958;48.150;11.506;2023-02-28T08:51:35;96161.81;;;0.40;67.60
9839;BME280;4958;48.150;11.506;2023-02-28T09:01:49;96154.25;;;0.52;67.14
9839;BME280;4958;48.150;11.506;2023-02-28T09:04:26;96155.75;;;0.67;66.25
9839;BME280;4958;48.150;11.506;2023-02-28T09:06:56;96160.41;;;0.48;66.85
9839;BME280;4958;48.150;11.506;2023-02-28T09:09:48;96157.69;;;0.64;66.29
9839;BME280;4958;48.150;11.506;2023-02-28T09:15:30;96160.72;;;0.82;65.65
9839;BME280;4958;48.150;11.506;2023-02-28T09:18:34;96157.78;;;0.62;65.73
9839;BME280;4958;48.150;11.506;2023-02-28T09:21:43;96162.22;;;0.84;66.03
9839;BME280;4958;48.150;11.506;2023-02-28T09:24:19;96164.06;;;0.82;64.74
9839;BME280;4958;48.150;11.506;2023-02-28T09:26:53;96171.97;;;0.65;65.55
9839;BME280;4958;48.150;11.506;2023-02-28T09:29:55;96175.03;;;0.57;66.03
9839;BME280;4958;48.150;11.506;2023-02-28T09:32:52;96179.16;;;0.46;66.20
9839;BME280;4958;48.150;11.506;2023-02-28T09:46:11;96191.63;;;0.49;66.15
9839;BME280;4958;48.150;11.506;2023-02-28T09:59:01;96206.16;;;0.20;67.66
9839;BME280;4958;48.150;11.506;2023-02-28T10:02:08;96199.69;;;0.28;67.20
9839;BME280;4958;48.150;11.506;2023-02-28T10:05:04;96199.13;;;0.63;66.80
9839;BME280;4958;48.150;11.506;2023-02-28T10:08:11;96203.38;;;0.50;66.35
9839;BME280;4958;48.150;11.506;2023-02-28T10:11:22;96202.88;;;0.45;67.02
9839;BME280;4958;48.150;11.506;2023-02-28T10:14:35;96206.66;;;0.90;65.93
9839;BME280;4958;48.150;11.506;2023-02-28T10:17:28;96207.22;;;1.19;64.66
9839;BME280;4958;48.150;11.506;2023-02-28T10:20:34;96206.16;;;1.47;63.84
9839;BME280;4958;48.150;11.506;2023-02-28T10:23:16;96212.19;;;1.57;63.65
9839;BME280;4958;48.150;11.506;2023-02-28T10:26:33;96212.44;;;1.78;62.71
9839;BME280;4958;48.150;11.506;2023-02-28T10:29:23;96215.03;;;1.65;62.81
9839;BME280;4958;48.150;11.506;2023-02-28T10:39:00;96217.72;;;1.38;63.64
9839;BME280;4958;48.150;11.506;2023-02-28T10:48:37;96226.25;;;2.45;60.26
9839;BME280;4958;48.150;11.506;2023-02-28T10:57:24;96227.53;;;2.51;59.84
9839;BME280;4958;48.150;11.506;2023-02-28T11:00:18;96231.72;;;2.63;59.17
9839;BME280;4958;48.150;11.506;2023-02-28T11:03:00;96229.94;;;2.52;59.30
9839;BME280;4958;48.150;11.506;2023-02-28T11:05:32;96232.44;;;2.30;58.94
9839;BME280;4958;48.150;11.506;2023-02-28T11:08:23;96234.53;;;2.12;59.83
9839;BME280;4958;48.150;11.506;2023-02-28T11:11:12;96238.38;;;1.94;60.40
9839;BME280;4958;48.150;11.506;2023-02-28T11:13:51;96228.91;;;2.20;60.28
9839;BME280;4958;48.150;11.506;2023-02-28T11:16:18;96233.47;;;2.27;60.15
9839;BME280;4958;48.150;11.506;2023-02-28T11:22:07;96236.16;;;2.13;60.90
9839;BME280;4958;48.150;11.506;2023-02-28T11:27:53;96233.28;;;2.41;59.83
9839;BME280;4958;48.150;11.506;2023-02-28T11:38:10;96212.03;;;3.11;57.98
9839;BME280;4958;48.150;11.506;2023-02-28T11:41:17;96207.59;;;2.80;57.26
9839;BME280;4958;48.150;11.506;2023-02-28T11:44:38;96212.66;;;2.57;57.86
9839;BME280;4958;48.150;11.506;2023-02-28T11:48:04;96208.94;;;2.50;58.41
9839;BME280;4958;48.150;11.506;2023-02-28T11:50:49;96207.56;;;2.57;58.47
9839;BME280;4958;48.150;11.506;2023-02-28T11:57:24;96196.53;;;3.14;57.01
9839;BME280;4958;48.150;11.506;2023-02-28T12:00:24;96190.75;;;3.12;57.01
9839;BME280;4958;48.150;11.506;2023-02-28T12:03:55;96182.69;;;3.72;56.61
9839;BME280;4958;48.150;11.506;2023-02-28T12:14:02;96178.56;;;4.24;55.08
9839;BME280;4958;48.150;11.506;2023-02-28T12:18:58;96178.81;;;4.00;55.30
9839;BME280;4958;48.150;11.506;2023-02-28T12:21:42;96174.13;;;4.05;54.85
9839;BME280;4958;48.150;11.506;2023-02-28T12:31:17;96168.72;;;4.82;52.39
9839;BME280;4958;48.150;11.506;2023-02-28T12:34:31;96158.13;;;4.56;52.95
9839;BME280;4958;48.150;11.506;2023-02-28T12:37:44;96158.00;;;4.16;54.03
9839;BME280;4958;48.150;11.506;2023-02-28T12:41:13;96155.94;;;4.10;54.56
9839;BME280;4958;48.150;11.506;2023-02-28T12:44:03;96147.44;;;4.21;54.32
9839;BME280;4958;48.150;11.506;2023-02-28T12:46:55;96142.84;;;4.56;54.08
9839;BME280;4958;48.150;11.506;2023-02-28T12:49:41;96146.72;;;4.81;53.84
9839;BME280;4958;48.150;11.506;2023-02-28T12:53:54;96149.19;;;4.62;52.87
9839;BME280;4958;48.150;11.506;2023-02-28T12:56:12;96149.72;;;4.24;53.77
9839;BME280;4958;48.150;11.506;2023-02-28T12:59:23;96146.63;;;4.41;53.91
9839;BME280;4958;48.150;11.506;2023-02-28T13:15:43;96137.75;;;5.17;51.34
9839;BME280;4958;48.150;11.506;2023-02-28T13:47:31;96144.72;;;5.15;51.90
9839;BME280;4958;48.150;11.506;2023-02-28T13:50:40;96151.44;;;4.65;53.05
9839;BME280;4958;48.150;11.506;2023-02-28T13:59:01;96138.91;;;4.52;54.23
9839;BME280;4958;48.150;11.506;2023-02-28T14:08:15;96150.94;;;4.40;54.91
9839;BME280;4958;48.150;11.506;2023-02-28T14:11:32;96143.75;;;4.55;54.23
9839;BME280;4958;48.150;11.506;2023-02-28T14:15:23;96143.44;;;4.69;54.50
9839;BME280;4958;48.150;11.506;2023-02-28T14:18:26;96143.69;;;4.45;54.10
9839;BME280;4958;48.150;11.506;2023-02-28T14:22:47;96147.72;;;4.27;54.33
9839;BME280;4958;48.150;11.506;2023-02-28T14:25:08;96138.53;;;4.36;54.10
9839;BME280;4958;48.150;11.506;2023-02-28T14:28:24;96138.97;;;4.62;53.99
9839;BME280;4958;48.150;11.506;2023-02-28T14:31:24;96142.63;;;4.48;53.70
9839;BME280;4958;48.150;11.506;2023-02-28T14:34:50;96148.78;;;4.25;53.76
9839;BME280;4958;48.150;11.506;2023-02-28T14:37:36;96143.63;;;4.15;54.61
9839;BME280;4958;48.150;11.506;2023-02-28T14:40:32;96150.47;;;4.14;54.93
9839;BME280;4958;48.150;11.506;2023-02-28T14:43:27;96141.41;;;4.22;54.70
9839;BME280;4958;48.150;11.506;2023-02-28T14:48:52;96146.63;;;4.62;54.21
9839;BME280;4958;48.150;11.506;2023-02-28T14:52:40;96142.06;;;4.44;54.11
9839;BME280;4958;48.150;11.506;2023-02-28T14:55:01;96144.63;;;4.24;54.47
9839;BME280;4958;48.150;11.506;2023-02-28T14:57:54;96144.63;;;4.24;54.06
9839;BME280;4958;48.150;11.506;2023-02-28T15:00:55;96140.41;;;4.34;54.51
9839;BME280;4958;48.150;11.506;2023-02-28T15:03:53;96134.81;;;4.40;54.56
9839;BME280;4958;48.150;11.506;2023-02-28T15:07:08;96136.47;;;4.50;53.76
9839;BME280;4958;48.150;11.506;2023-02-28T15:09:42;96141.59;;;4.50;53.84
9839;BME280;4958;48.150;11.506;2023-02-28T15:12:16;96135.91;;;4.47;53.73
9839;BME280;4958;48.150;11.506;2023-02-28T15:14:50;96134.38;;;4.35;54.18
9839;BME280;4958;48.150;11.506;2023-02-28T15:17:55;96134.53;;;4.43;53.84
9839;BME280;4958;48.150;11.506;2023-02-28T15:20:40;96137.78;;;4.45;53.99
9839;BME280;4958;48.150;11.506;2023-02-28T15:23:31;96137.47;;;4.80;54.15
9839;BME280;4958;48.150;11.506;2023-02-28T15:26:24;96141.19;;;4.76;53.16
9839;BME280;4958;48.150;11.506;2023-02-28T15:29:07;96141.66;;;4.60;54.37
9839;BME280;4958;48.150;11.506;2023-02-28T15:31:48;96137.50;;;4.59;53.82
9839;BME280;4958;48.150;11.506;2023-02-28T15:34:46;96138.88;;;4.73;53.91
9839;BME280;4958;48.150;11.506;2023-02-28T15:38:02;96140.84;;;4.90;53.81
9839;BME280;4958;48.150;11.506;2023-02-28T15:44:26;96148.78;;;4.66;54.26
9839;BME280;4958;48.150;11.506;2023-02-28T15:47:29;96142.69;;;4.78;54.00
9839;BME280;4958;48.150;11.506;2023-02-28T15:50:14;96139.56;;;4.75;53.94
9839;BME280;4958;48.150;11.506;2023-02-28T15:55:37;96152.34;;;4.84;54.45
9839;BME280;4958;48.150;11.506;2023-02-28T15:58:21;96155.25;;;4.70;53.99
9839;BME280;4958;48.150;11.506;2023-02-28T16:01:35;96161.16;;;4.50;55.01
9839;BME280;4958;48.150;11.506;2023-02-28T16:04:26;96160.44;;;4.38;55.65
9839;BME280;4958;48.150;11.506;2023-02-28T16:07:15;96157.25;;;4.46;55.85
9839;BME280;4958;48.150;11.506;2023-02-28T16:13:25;96155.50;;;4.67;55.43
9839;BME280;4958;48.150;11.506;2023-02-28T16:16:21;96159.78;;;4.67;55.79
9839;BME280;4958;48.150;11.506;2023-02-28T16:19:42;96164.28;;;4.54;55.40
9839;BME280;4958;48.150;11.506;2023-02-28T16:22:31;96151.78;;;4.50;55.64
9839;BME280;4958;48.150;11.506;2023-02-28T16:29:03;96149.72;;;4.44;55.92
9839;BME280;4958;48.150;11.506;2023-02-28T16:38:52;96163.78;;;4.39;55.82
9839;BME280;4958;48.150;11.506;2023-02-28T16:42:22;96163.59;;;4.31;56.15
9839;BME280;4958;48.150;11.506;2023-02-28T16:44:49;96165.56;;;4.27;56.00
9839;BME280;4958;48.150;11.506;2023-02-28T16:47:39;96164.41;;;4.31;56.93
9839;BME280;4958;48.150;11.506;2023-02-28T16:57:49;96174.53;;;4.22;56.48
9839;BME280;4958;48.150;11.506;2023-02-28T17:01:45;96180.59;;;4.09;56.54
9839;BME280;4958;48.150;11.506;2023-02-28T17:03:35;96179.38;;;4.04;56.90
9839;BME280;4958;48.150;11.506;2023-02-28T17:06:37;96177.19;;;3.99;57.47
9839;BME280;4958;48.150;11.506;2023-02-28T17:09:39;96187.78;;;4.04;60.22
9839;BME280;4958;48.150;11.506;2023-02-28T17:17:03;96189.28;;;4.07;57.48
9839;BME280;4958;48.150;11.506;2023-02-28T17:18:36;96189.91;;;3.99;58.46
9839;BME280;4958;48.150;11.506;2023-02-28T17:21:30;96191.41;;;4.02;57.60
9839;BME280;4958;48.150;11.506;2023-02-28T17:27:34;96201.22;;;4.06;57.61
9839;BME280;4958;48.150;11.506;2023-02-28T17:33:35;96215.03;;;4.04;57.71
9839;BME280;4958;48.150;11.506;2023-02-28T17:39:25;96211.41;;;4.06;57.76
9839;BME280;4958;48.150;11.506;2023-02-28T17:52:25;96206.59;;;4.03;57.92
9839;BME280;4958;48.150;11.506;2023-02-28T17:58:36;96200.06;;;4.10;58.38
9839;BME280;4958;48.150;11.506;2023-02-28T18:01:17;96211.19;;;4.09;58.24
9839;BME280;4958;48.150;11.506;2023-02-28T18:04:26;96207.63;;;4.01;58.69
9839;BME280;4958;48.150;11.506;2023-02-28T18:07:42;96202.78;;;3.98;58.65
9839;BME280;4958;48.150;11.506;2023-02-28T18:10:21;96205.66;;;3.93;58.76
9839;BME280;4958;48.150;11.506;2023-02-28T18:12:58;96207.41;;;3.93;58.81
9839;BME280;4958;48.150;11.506;2023-02-28T18:15:36;96209.50;;;3.99;59.00
9839;BME280;4958;48.150;11.506;2023-02-28T18:18:40;96214.22;;;4.03;59.03
9839;BME280;4958;48.150;11.506;2023-02-28T18:21:18;96210.72;;;4.04;58.85
9839;BME280;4958;48.150;11.506;2023-02-28T18:23:56;96206.44;;;4.05;59.15
9839;BME280;4958;48.150;11.506;2023-02-28T18:27:05;96208.91;;;3.95;59.24
9839;BME280;4958;48.150;11.506;2023-02-28T18:30:15;96208.97;;;3.84;59.84
9839;BME280;4958;48.150;11.506;2023-02-28T18:33:11;96208.81;;;3.86;59.68
9839;BME280;4958;48.150;11.506;2023-02-28T18:36:17;96203.47;;;3.89;59.71
9839;BME280;4958;48.150;11.506;2023-02-28T18:39:03;96204.16;;;3.91;59.58
9839;BME280;4958;48.150;11.506;2023-02-28T18:41:58;96202.19;;;3.94;59.36
9839;BME280;4958;48.150;11.506;2023-02-28T18:45:28;96206.38;;;3.95;59.93
9839;BME280;4958;48.150;11.506;2023-02-28T18:48:12;96205.19;;;3.99;59.74
9839;BME280;4958;48.150;11.506;2023-02-28T19:04:56;96200.13;;;3.88;60.04
9839;BME280;4958;48.150;11.506;2023-02-28T19:08:05;96194.91;;;3.90;60.04
9839;BME280;4958;48.150;11.506;2023-02-28T19:11:26;96197.22;;;3.93;59.96
9839;BME280;4958;48.150;11.506;2023-02-28T19:15:10;96198.59;;;3.97;60.10
9839;BME280;4958;48.150;11.506;2023-02-28T19:28:23;96203.13;;;3.93;60.03
9839;BME280;4958;48.150;11.506;2023-02-28T19:31:15;96203.28;;;3.80;59.96
9839;BME280;4958;48.150;11.506;2023-02-28T19:34:19;96210.25;;;3.67;60.48
9839;BME280;4958;48.150;11.506;2023-02-28T19:37:45;96204.22;;;3.68;61.24
9839;BME280;4958;48.150;11.506;2023-02-28T19:43:28;96208.03;;;3.74;61.04
9839;BME280;4958;48.150;11.506;2023-02-28T19:49:39;96202.47;;;3.69;60.94
9839;BME280;4958;48.150;11.506;2023-02-28T19:52:39;96205.97;;;3.68;61.48
9839;BME280;4958;48.150;11.506;2023-02-28T19:58:21;96199.25;;;3.67;61.19
9839;BME280;4958;48.150;11.506;2023-02-28T20:04:37;96192.25;;;3.37;62.23
9839;BME280;4958;48.150;11.506;2023-02-28T20:07:24;96199.53;;;3.41;62.50
9839;BME280;4958;48.150;11.506;2023-02-28T20:10:26;96190.84;;;3.44;62.50
9839;BME280;4958;48.150;11.506;2023-02-28T20:13:13;96195.47;;;3.50;62.57
9839;BME280;4958;48.150;11.506;2023-02-28T20:16:49;96190.75;;;3.45;62.56
9839;BME280;4958;48.150;11.506;2023-02-28T20:26:37;96191.34;;;3.27;63.51
9839;BME280;4958;48.150;11.506;2023-02-28T20:29:05;96192.13;;;3.38;63.57
9839;BME280;4958;48.150;11.506;2023-02-28T20:31:55;96185.19;;;3.40;63.93
9839;BME280;4958;48.150;11.506;2023-02-28T20:34:22;96187.84;;;3.28;63.95
9839;BME280;4958;48.150;11.506;2023-02-28T20:37:12;96188.22;;;3.23;64.16
9839;BME280;4958;48.150;11.506;2023-02-28T20:43:10;96189.34;;;3.08;65.09
9839;BME280;4958;48.150;11.506;2023-02-28T20:45:53;96187.75;;;3.07;64.83
9839;BME280;4958;48.150;11.506;2023-02-28T20:48:31;96191.78;;;3.09;65.45
9839;BME280;4958;48.150;11.506;2023-02-28T20:51:12;96195.50;;;3.17;65.63
9839;BME280;4958;48.150;11.506;2023-02-28T20:56:53;96192.00;;;2.95;65.63
9839;BME280;4958;48.150;11.506;2023-02-28T21:02:58;96188.09;;;3.02;65.56
9839;BME280;4958;48.150;11.506;2023-02-28T21:05:40;96188.00;;;3.04;65.45
9839;BME280;4958;48.150;11.506;2023-02-28T21:08:21;96184.16;;;2.98;65.66
9839;BME280;4958;48.150;11.506;2023-02-28T21:11:09;96185.31;;;3.05;65.12
9839;BME280;4958;48.150;11.506;2023-02-28T21:17:24;96185.53;;;2.91;65.93
9839;BME280;4958;48.150;11.506;2023-02-28T21:20:16;96185.56;;;3.02;65.75
9839;BME280;4958;48.150;11.506;2023-02-28T21:22:56;96184.72;;;2.91;65.79
9839;BME280;4958;48.150;11.506;2023-02-28T21:25:26;96193.63;;;2.85;66.16
9839;BME280;4958;48.150;11.506;2023-02-28T21:27:59;96189.47;;;2.84;66.44
9839;BME280;4958;48.150;11.506;2023-02-28T21:30:39;96189.09;;;2.89;66.30
9839;BME280;4958;48.150;11.506;2023-02-28T21:33:57;96178.97;;;3.00;65.91
9839;BME280;4958;48.150;11.506;2023-02-28T21:36:35;96179.66;;;3.13;65.49
9839;BME280;4958;48.150;11.506;2023-02-28T21:39:18;96175.72;;;3.20;64.99
9839;BME280;4958;48.150;11.506;2023-02-28T21:42:00;96177.09;;;3.13;65.16
9839;BME280;4958;48.150;11.506;2023-02-28T21:44:49;96173.66;;;3.03;65.85
9839;BME280;4958;48.150;11.506;2023-02-28T21:47:31;96178.94;;;3.11;65.00
9839;BME280;4958;48.150;11.506;2023-02-28T21:56:36;96161.84;;;3.13;65.56
9839;BME280;4958;48.150;11.506;2023-02-28T21:59:29;96160.34;;;3.22;65.08
9839;BME280;4958;48.150;11.506;2023-02-28T22:02:24;96164.38;;;3.24;65.13
9839;BME280;4958;48.150;11.506;2023-02-28T22:05:51;96166.72;;;3.05;65.71
9839;BME280;4958;48.150;11.506;2023-02-28T22:08:45;96177.94;;;3.02;65.82
9839;BME280;4958;48.150;11.506;2023-02-28T22:14:39;96176.13;;;2.69;66.83
9839;BME280;4958;48.150;11.506;2023-02-28T22:17:47;96175.69;;;2.64;67.01
9839;BME280;4958;48.150;11.506;2023-02-28T22:24:20;96172.47;;;2.73;66.92
9839;BME280;4958;48.150;11.506;2023-02-28T22:27:32;96173.38;;;2.61;67.50
9839;BME280;4958;48.150;11.506;2023-02-28T22:30:32;96173.03;;;2.66;67.34
9839;BME280;4958;48.150;11.506;2023-02-28T22:37:03;96172.59;;;2.83;67.61
9839;BME280;4958;48.150;11.506;2023-02-28T22:40:04;96167.84;;;2.78;67.33
9839;BME280;4958;48.150;11.506;2023-02-28T23:11:01;96168.53;;;2.92;66.55
9839;BME280;4958;48.150;11.506;2023-02-28T23:13:58;96163.34;;;2.82;67.38
9839;BME280;4958;48.150;11.506;2023-02-28T23:18:22;96171.31;;;2.89;67.23
9839;BME280;4958;48.150;11.506;2023-02-28T23:20:45;96163.34;;;3.04;66.58
9839;BME280;4958;48.150;11.506;2023-02-28T23:34:16;96168.44;;;2.93;66.88
9839;BME280;4958;48.150;11.506;2023-02-28T23:37:34;96167.06;;;3.00;66.84
